createdAt,value
2022-12-26T00:01:48.435Z,87.14
2022-12-26T00:04:53.581Z,87.96
2022-12-26T00:07:56.713Z,89.34
2022-12-26T00:10:59.490Z,89.18
2022-12-26T00:14:06.111Z,88.43
2022-12-26T00:17:08.852Z,88.54
2022-12-26T00:20:11.829Z,88.57
2022-12-26T00:23:14.566Z,88.87
2022-12-26T00:26:20.475Z,89.32
2022-12-26T00:29:23.467Z,89.41
2022-12-26T00:32:26.203Z,90.01
2022-12-26T00:35:28.947Z,90.17
2022-12-26T00:38:32.342Z,90.17
2022-12-26T00:41:35.173Z,91.08
2022-12-26T00:44:38.116Z,91.21
2022-12-26T00:47:40.929Z,91.63
2022-12-26T00:50:43.731Z,91.40
2022-12-26T00:53:47.888Z,91.83
2022-12-26T00:56:50.708Z,91.90
2022-12-26T00:59:53.443Z,92.07
2022-12-26T01:02:56.411Z,92.15
2022-12-26T01:06:03.036Z,92.80
2022-12-26T01:09:05.826Z,93.47
2022-12-26T01:12:08.583Z,93.64
2022-12-26T01:15:11.465Z,95.12
2022-12-26T01:18:14.174Z,95.36
2022-12-26T01:21:17.016Z,95.35
2022-12-26T01:24:19.732Z,95.65
2022-12-26T01:27:23.797Z,95.99
2022-12-26T01:30:26.676Z,96.30
2022-12-26T01:33:30.235Z,96.55
2022-12-26T01:36:32.967Z,96.56
2022-12-26T01:39:35.705Z,96.83
2022-12-26T01:42:40.328Z,97.10
2022-12-26T01:45:50.651Z,96.69
2022-12-26T01:48:56.348Z,97.55
2022-12-26T01:52:03.609Z,97.04
2022-12-26T01:55:10.725Z,97.44
2022-12-26T01:58:28.569Z,97.71
2022-12-26T02:01:33.733Z,98.52
2022-12-26T02:05:02.471Z,97.95
2022-12-26T02:08:24.982Z,98.08
2022-12-26T02:11:41.381Z,98.51
2022-12-26T02:14:44.287Z,98.88
2022-12-26T02:17:47.153Z,98.48
2022-12-26T02:21:07.980Z,99.51
2022-12-26T02:24:46.222Z,99.94
2022-12-26T02:27:49.019Z,99.54
2022-12-26T02:31:04.142Z,99.83
2022-12-26T02:34:19.907Z,99.51
2022-12-26T02:37:44.532Z,99.63
2022-12-26T02:41:13.369Z,99.64
2022-12-26T02:45:00.694Z,99.96
2022-12-26T02:48:15.588Z,99.92
2022-12-26T02:52:09.101Z,100.00
2022-12-26T02:55:36.931Z,100.00
2022-12-26T02:59:53.989Z,100.00
2022-12-26T03:03:33.497Z,100.00
2022-12-26T03:06:57.830Z,100.00
2022-12-26T03:10:24.878Z,100.00
2022-12-26T03:13:33.476Z,100.00
2022-12-26T03:16:54.706Z,100.00
2022-12-26T03:20:03.836Z,100.00
2022-12-26T03:23:10.457Z,100.00
2022-12-26T03:26:39.906Z,100.00
2022-12-26T03:30:14.739Z,100.00
2022-12-26T03:33:40.783Z,100.00
2022-12-26T03:37:15.856Z,100.00
2022-12-26T03:40:55.637Z,100.00
2022-12-26T03:44:53.770Z,100.00
2022-12-26T03:48:55.580Z,100.00
2022-12-26T03:52:38.894Z,100.00
2022-12-26T03:56:20.300Z,100.00
2022-12-26T03:59:48.368Z,100.00
2022-12-26T04:03:13.766Z,100.00
2022-12-26T04:06:42.108Z,100.00
2022-12-26T04:10:23.837Z,100.00
2022-12-26T04:13:51.330Z,100.00
2022-12-26T04:17:28.237Z,100.00
2022-12-26T04:20:47.960Z,100.00
2022-12-26T04:24:17.988Z,100.00
2022-12-26T04:27:42.663Z,100.00
2022-12-26T04:31:12.215Z,100.00
2022-12-26T04:34:51.985Z,100.00
2022-12-26T04:38:15.266Z,100.00
2022-12-26T04:41:39.184Z,100.00
2022-12-26T04:44:42.933Z,100.00
2022-12-26T04:48:05.768Z,100.00
2022-12-26T04:51:08.653Z,100.00
2022-12-26T04:54:11.388Z,100.00
2022-12-26T04:57:14.116Z,100.00
2022-12-26T05:00:17.946Z,100.00
2022-12-26T05:03:39.099Z,100.00
2022-12-26T05:07:00.242Z,100.00
2022-12-26T05:10:05.023Z,100.00
2022-12-26T05:13:07.850Z,100.00
2022-12-26T05:16:29.716Z,100.00
2022-12-26T05:19:51.307Z,100.00
2022-12-26T05:23:13.086Z,100.00
2022-12-26T05:26:37.871Z,100.00
2022-12-26T05:29:40.989Z,100.00
2022-12-26T05:33:02.338Z,100.00
2022-12-26T05:36:05.411Z,100.00
2022-12-26T05:39:09.742Z,100.00
2022-12-26T05:42:12.537Z,100.00
2022-12-26T05:45:15.407Z,100.00
2022-12-26T05:48:18.207Z,100.00
2022-12-26T05:51:21.216Z,100.00
2022-12-26T05:54:23.967Z,100.00
2022-12-26T05:57:26.757Z,100.00
2022-12-26T06:00:30.651Z,100.00
2022-12-26T06:03:34.153Z,100.00
2022-12-26T06:06:37.124Z,100.00
2022-12-26T06:09:39.885Z,100.00
2022-12-26T06:12:42.582Z,100.00
2022-12-26T06:15:45.401Z,100.00
2022-12-26T06:18:49.958Z,100.00
2022-12-26T06:21:52.738Z,100.00
2022-12-26T06:24:55.697Z,100.00
2022-12-26T06:27:58.670Z,100.00
2022-12-26T06:31:06.674Z,100.00
2022-12-26T06:34:12.560Z,100.00
2022-12-26T06:37:15.356Z,100.00
2022-12-26T06:40:18.089Z,100.00
2022-12-26T06:43:20.819Z,100.00
2022-12-26T06:46:25.343Z,100.00
2022-12-26T06:49:32.727Z,100.00
2022-12-26T06:52:36.094Z,100.00
2022-12-26T06:55:38.952Z,100.00
2022-12-26T06:58:42.065Z,100.00
2022-12-26T07:01:45.029Z,100.00
2022-12-26T07:04:48.108Z,100.00
2022-12-26T07:07:54.299Z,100.00
2022-12-26T07:10:58.333Z,100.00
2022-12-26T07:14:01.859Z,99.57
2022-12-26T07:17:04.659Z,100.00
2022-12-26T07:20:08.801Z,100.00
2022-12-26T07:23:11.539Z,99.82
2022-12-26T07:26:15.117Z,99.00
2022-12-26T07:29:18.029Z,98.07
2022-12-26T07:32:20.836Z,97.59
2022-12-26T07:35:23.723Z,97.19
2022-12-26T07:38:26.622Z,96.62
2022-12-26T07:41:48.957Z,95.82
2022-12-26T07:44:51.717Z,94.82
2022-12-26T07:47:56.287Z,95.51
2022-12-26T07:51:02.717Z,92.09
2022-12-26T07:54:11.080Z,90.29
2022-12-26T08:00:37.233Z,80.88
2022-12-26T08:03:40.111Z,76.86
2022-12-26T08:06:46.706Z,71.20
2022-12-26T08:09:49.667Z,68.64
2022-12-26T08:12:52.417Z,59.46
2022-12-26T08:15:55.755Z,60.41
2022-12-26T08:18:58.690Z,58.96
2022-12-26T08:22:01.562Z,56.23
2022-12-26T08:25:04.728Z,56.28
2022-12-26T08:28:07.571Z,49.39
2022-12-26T08:31:12.685Z,50.04
2022-12-26T08:34:15.905Z,47.93
2022-12-26T08:37:18.813Z,47.51
2022-12-26T08:40:39.820Z,45.36
2022-12-26T08:47:10.445Z,41.39
2022-12-26T08:50:13.460Z,39.90
2022-12-26T08:53:16.224Z,38.17
2022-12-26T08:56:22.095Z,38.78
2022-12-26T08:59:24.896Z,37.41
2022-12-26T09:02:27.997Z,36.95
2022-12-26T09:05:32.502Z,37.08
2022-12-26T09:08:36.762Z,35.69
2022-12-26T09:11:40.620Z,36.16
2022-12-26T09:14:44.289Z,35.56
2022-12-26T09:17:47.472Z,36.43
2022-12-26T09:20:50.355Z,35.53
2022-12-26T09:23:58.963Z,34.85
2022-12-26T09:27:01.823Z,38.25
2022-12-26T09:30:05.177Z,36.40
2022-12-26T09:33:08.394Z,34.50
2022-12-26T09:36:15.329Z,33.20
2022-12-26T09:39:18.220Z,34.47
2022-12-26T09:42:50.526Z,34.18
2022-12-26T09:46:11.384Z,34.94
2022-12-26T09:49:19.579Z,34.31
2022-12-26T09:52:38.780Z,33.11
2022-12-26T09:55:54.622Z,34.25
2022-12-26T09:59:02.746Z,35.28
2022-12-26T10:02:18.137Z,35.00
2022-12-26T10:05:26.315Z,35.87
2022-12-26T10:08:54.803Z,34.82
2022-12-26T10:12:21.764Z,34.71
2022-12-26T10:15:45.655Z,35.82
2022-12-26T10:19:03.476Z,35.13
2022-12-26T10:22:15.918Z,36.47
2022-12-26T10:25:25.426Z,38.44
2022-12-26T10:28:47.372Z,38.98
2022-12-26T10:31:52.965Z,39.05
2022-12-26T10:34:56.123Z,39.79
2022-12-26T10:38:15.981Z,37.29
2022-12-26T10:41:32.844Z,36.50
2022-12-26T10:44:35.755Z,36.67
2022-12-26T10:47:42.177Z,38.20
2022-12-26T10:50:48.885Z,36.07
2022-12-26T10:53:54.082Z,36.56
2022-12-26T10:56:59.450Z,36.19
2022-12-26T11:00:14.521Z,35.93
2022-12-26T11:03:20.070Z,35.76
2022-12-26T11:06:27.808Z,36.31
2022-12-26T11:09:41.436Z,37.14
2022-12-26T11:12:51.533Z,36.90
2022-12-26T11:15:55.087Z,37.34
2022-12-26T11:18:58.877Z,36.94
2022-12-26T11:22:23.292Z,35.84
2022-12-26T11:25:30.672Z,35.78
2022-12-26T11:28:37.952Z,38.94
2022-12-26T11:31:43.175Z,38.83
2022-12-26T11:34:49.440Z,38.83
2022-12-26T11:37:56.617Z,37.70
2022-12-26T11:41:18.437Z,35.18
2022-12-26T11:44:26.685Z,34.98
2022-12-26T11:47:30.056Z,35.13
2022-12-26T11:50:35.594Z,34.61
2022-12-26T11:53:38.428Z,35.95
2022-12-26T11:56:41.283Z,37.20
2022-12-26T11:59:44.876Z,37.96
2022-12-26T12:02:48.589Z,38.94
2022-12-26T12:05:58.921Z,37.91
2022-12-26T12:09:32.165Z,41.96
2022-12-26T12:13:07.605Z,44.11
2022-12-26T12:16:35.335Z,45.51
2022-12-26T12:19:55.668Z,49.31
2022-12-26T12:23:26.491Z,51.38
2022-12-26T12:26:57.547Z,52.19
2022-12-26T12:30:21.136Z,53.67
2022-12-26T12:33:47.455Z,55.27
2022-12-26T12:37:20.107Z,56.61
2022-12-26T12:40:52.384Z,54.87
2022-12-26T12:44:34.743Z,52.42
2022-12-26T12:47:40.344Z,52.36
2022-12-26T12:50:56.754Z,53.49
2022-12-26T12:54:33.625Z,53.54
2022-12-26T12:57:55.182Z,54.31
2022-12-26T13:01:08.442Z,54.63
2022-12-26T13:04:33.392Z,55.72
2022-12-26T13:07:46.909Z,57.51
2022-12-26T13:11:00.160Z,57.45
2022-12-26T13:14:12.053Z,59.16
2022-12-26T13:17:20.746Z,60.31
2022-12-26T13:20:49.913Z,61.29
2022-12-26T13:24:34.650Z,61.42
2022-12-26T13:27:39.145Z,62.28
2022-12-26T13:30:42.651Z,63.18
2022-12-26T13:33:45.539Z,63.77
2022-12-26T13:36:51.043Z,64.31
2022-12-26T13:39:54.113Z,64.69
2022-12-26T13:43:24.664Z,64.11
2022-12-26T13:46:44.742Z,64.33
2022-12-26T13:49:47.614Z,65.85
2022-12-26T13:52:50.637Z,65.64
2022-12-26T13:56:10.856Z,65.45
2022-12-26T13:59:25.426Z,66.23
2022-12-26T14:02:43.029Z,67.25
2022-12-26T14:06:07.075Z,67.68
2022-12-26T14:09:36.286Z,67.54
2022-12-26T14:12:55.994Z,68.04
2022-12-26T14:16:09.244Z,68.25
2022-12-26T14:19:33.278Z,69.64
2022-12-26T14:22:51.475Z,70.04
2022-12-26T14:26:07.093Z,70.39
2022-12-26T14:29:32.779Z,71.55
2022-12-26T14:32:58.233Z,72.63
2022-12-26T14:36:28.334Z,73.41
2022-12-26T14:40:00.060Z,72.43
2022-12-26T14:43:12.954Z,72.41
2022-12-26T14:46:30.743Z,71.82
2022-12-26T14:49:35.704Z,72.23
2022-12-26T14:52:40.977Z,72.01
2022-12-26T14:55:59.036Z,72.54
2022-12-26T14:59:34.865Z,72.81
2022-12-26T15:02:42.834Z,73.35
2022-12-26T15:05:48.497Z,73.23
2022-12-26T15:08:54.234Z,73.10
2022-12-26T15:12:34.159Z,73.15
2022-12-26T15:15:58.261Z,73.42
2022-12-26T15:19:19.488Z,73.64
2022-12-26T15:22:25.080Z,73.38
2022-12-26T15:25:52.127Z,73.52
2022-12-26T15:29:06.672Z,73.47
2022-12-26T15:32:33.841Z,73.71
2022-12-26T15:36:06.585Z,73.54
2022-12-26T15:39:21.802Z,74.49
2022-12-26T15:42:39.270Z,74.46
2022-12-26T15:45:50.863Z,74.29
2022-12-26T15:49:19.418Z,73.82
2022-12-26T15:52:34.655Z,73.96
2022-12-26T15:55:49.589Z,73.46
2022-12-26T15:59:19.863Z,73.63
2022-12-26T16:02:25.641Z,73.61
2022-12-26T16:05:31.435Z,73.04
2022-12-26T16:09:00.454Z,72.80
2022-12-26T16:12:28.151Z,72.44
2022-12-26T16:15:32.885Z,72.82
2022-12-26T16:18:36.137Z,72.54
2022-12-26T16:21:57.490Z,72.63
2022-12-26T16:25:01.482Z,72.62
2022-12-26T16:28:05.416Z,72.62
2022-12-26T16:31:10.120Z,72.19
2022-12-26T16:34:35.005Z,72.32
2022-12-26T16:37:38.239Z,72.60
2022-12-26T16:40:51.381Z,71.85
2022-12-26T16:43:56.263Z,72.43
2022-12-26T16:47:06.120Z,72.17
2022-12-26T16:50:17.073Z,72.71
2022-12-26T16:53:23.909Z,73.22
2022-12-26T16:56:33.904Z,74.69
2022-12-26T16:59:51.331Z,74.84
2022-12-26T17:02:57.630Z,74.90
2022-12-26T17:06:00.633Z,75.00
2022-12-26T17:09:16.888Z,75.64
2022-12-26T17:12:23.028Z,75.60
2022-12-26T17:15:31.254Z,76.03
2022-12-26T17:18:49.984Z,76.18
2022-12-26T17:22:14.830Z,76.48
2022-12-26T17:25:17.560Z,76.60
2022-12-26T17:28:20.286Z,76.66
2022-12-26T17:31:39.072Z,75.99
2022-12-26T17:34:42.610Z,76.52
2022-12-26T17:37:47.474Z,75.56
2022-12-26T17:40:54.696Z,75.87
2022-12-26T17:43:57.985Z,75.61
2022-12-26T17:47:12.531Z,75.70
2022-12-26T17:50:15.768Z,75.65
2022-12-26T17:53:28.099Z,75.35
2022-12-26T17:56:31.185Z,75.38
2022-12-26T17:59:35.601Z,75.14
2022-12-26T18:02:38.462Z,74.98
2022-12-26T18:05:41.511Z,75.01
2022-12-26T18:08:44.874Z,74.58
2022-12-26T18:11:48.082Z,74.83
2022-12-26T18:14:53.537Z,75.15
2022-12-26T18:18:00.477Z,74.85
2022-12-26T18:21:05.706Z,74.67
2022-12-26T18:24:08.724Z,75.03
2022-12-26T18:27:22.964Z,75.03
2022-12-26T18:30:26.112Z,74.95
2022-12-26T18:33:28.933Z,74.53
2022-12-26T18:36:37.216Z,74.56
2022-12-26T18:39:39.928Z,74.78
2022-12-26T18:42:42.873Z,75.03
2022-12-26T18:45:45.777Z,74.88
2022-12-26T18:48:54.058Z,75.37
2022-12-26T18:51:57.080Z,75.29
2022-12-26T18:54:59.901Z,74.81
2022-12-26T18:58:02.927Z,75.19
2022-12-26T19:01:06.378Z,75.33
2022-12-26T19:04:15.447Z,75.64
2022-12-26T19:07:20.556Z,75.89
2022-12-26T19:10:27.969Z,75.64
2022-12-26T19:13:31.481Z,76.28
2022-12-26T19:16:37.514Z,76.44
2022-12-26T19:19:40.769Z,76.28
2022-12-26T19:22:43.990Z,76.57
2022-12-26T19:25:47.380Z,76.63
2022-12-26T19:28:55.597Z,76.34
2022-12-26T19:31:58.725Z,76.05
2022-12-26T19:35:01.598Z,76.79
2022-12-26T19:38:04.804Z,76.95
2022-12-26T19:41:11.624Z,77.61
2022-12-26T19:44:15.129Z,77.65
2022-12-26T19:47:18.698Z,77.50
2022-12-26T19:50:21.517Z,77.62
2022-12-26T19:53:25.496Z,77.60
2022-12-26T19:56:28.988Z,78.05
2022-12-26T19:59:32.390Z,77.91
2022-12-26T20:02:35.787Z,77.66
2022-12-26T20:05:40.430Z,78.06
2022-12-26T20:08:44.892Z,77.42
2022-12-26T20:11:54.175Z,77.57
2022-12-26T20:14:56.985Z,78.13
2022-12-26T20:18:00.173Z,78.19
2022-12-26T20:21:04.029Z,78.55
2022-12-26T20:24:07.715Z,77.96
2022-12-26T20:27:10.540Z,78.08
2022-12-26T20:30:13.775Z,78.18
2022-12-26T20:33:16.542Z,78.13
2022-12-26T20:36:23.760Z,77.51
2022-12-26T20:39:27.396Z,77.16
2022-12-26T20:42:30.353Z,77.18
2022-12-26T20:45:33.437Z,76.55
2022-12-26T20:48:36.824Z,76.11
2022-12-26T20:51:42.309Z,76.18
2022-12-26T20:54:45.184Z,76.13
2022-12-26T20:57:48.021Z,76.78
2022-12-26T21:00:59.362Z,76.98
2022-12-26T21:04:02.261Z,77.28
2022-12-26T21:07:05.272Z,77.33
2022-12-26T21:10:09.124Z,77.31
2022-12-26T21:13:12.681Z,77.94
2022-12-26T21:16:25.367Z,78.49
2022-12-26T21:19:29.789Z,77.99
2022-12-26T21:22:32.731Z,77.72
2022-12-26T21:25:36.731Z,77.89
2022-12-26T21:28:39.913Z,78.61
2022-12-26T21:31:43.081Z,78.41
2022-12-26T21:34:46.053Z,78.94
2022-12-26T21:37:48.896Z,79.05
2022-12-26T21:40:51.887Z,79.19
2022-12-26T21:43:55.842Z,79.45
2022-12-26T21:46:59.027Z,79.46
2022-12-26T21:50:01.920Z,79.26
2022-12-26T21:53:04.760Z,78.94
2022-12-26T21:56:09.192Z,79.04
2022-12-26T21:59:30.732Z,79.07
2022-12-26T22:02:55.099Z,79.04
2022-12-26T22:05:58.236Z,78.78
2022-12-26T22:09:01.870Z,78.02
2022-12-26T22:12:23.185Z,78.80
2022-12-26T22:15:44.995Z,79.21
2022-12-26T22:18:47.853Z,79.40
2022-12-26T22:21:54.671Z,78.80
2022-12-26T22:24:57.669Z,79.08
2022-12-26T22:28:00.477Z,79.42
2022-12-26T22:31:03.390Z,79.20
2022-12-26T22:34:12.479Z,79.18
2022-12-26T22:37:15.308Z,78.62
2022-12-26T22:40:18.212Z,78.66
2022-12-26T22:43:21.360Z,78.25
2022-12-26T22:46:24.534Z,78.02
2022-12-26T22:49:27.646Z,78.16
2022-12-26T22:52:31.079Z,77.80
2022-12-26T22:55:33.797Z,78.01
2022-12-26T22:58:36.581Z,77.47
2022-12-26T23:01:39.515Z,77.46
2022-12-26T23:04:42.765Z,77.17
2022-12-26T23:07:45.967Z,77.53
2022-12-26T23:10:49.218Z,77.67
2022-12-26T23:13:52.361Z,77.31
2022-12-26T23:16:58.732Z,77.78
2022-12-26T23:20:20.645Z,78.49
2022-12-26T23:23:24.491Z,78.82
2022-12-26T23:26:27.277Z,78.89
2022-12-26T23:29:48.663Z,79.18
2022-12-26T23:32:53.009Z,79.00
2022-12-26T23:35:55.782Z,78.86
2022-12-26T23:38:58.904Z,79.20
2022-12-26T23:42:02.130Z,79.33
2022-12-26T23:45:06.344Z,78.91
2022-12-26T23:48:09.307Z,78.77
2022-12-26T23:51:12.287Z,78.42
2022-12-26T23:54:15.090Z,78.75
2022-12-26T23:57:17.949Z,78.88
